Time;durP1;ratioP1;P1;durP2;ratioP2;P2;SDS_P1;SDS_P2;PMS_P1;PMS_P2;Temp;Humidity;BMP_temperature;BMP_pressure;BME280_temperature;BME280_humidity;BME280_pressure;Samples;Min_cycle;Max_cycle;Signal;HPM_P1;HPM_P2
2023/05/15 00:01:43;;;;;;;;;;;;;;;18.82;40.60;100974.34;103608;1285;62834;-81
2023/05/15 00:04:37;;;;;;;;;;;;;;;18.82;40.55;100973.46;102984;1291;62844;-83
2023/05/15 00:07:06;;;;;;;;;;;;;;;18.81;40.51;100977.05;103070;1292;62125;-83
2023/05/15 00:09:40;;;;;;;;;;;;;;;18.81;40.59;100982.23;103026;1292;71738;-82
2023/05/15 00:12:06;;;;;;;;;;;;;;;18.82;40.60;100980.59;103010;1293;74703;-83
2023/05/15 00:14:36;;;;;;;;;;;;;;;18.82;40.58;100977.92;103084;1291;62131;-82
2023/05/15 00:17:11;;;;;;;;;;;;;;;18.82;40.60;100981.12;103041;1297;62275;-81
2023/05/15 00:19:45;;;;;;;;;;;;;;;18.81;40.61;100974.23;103046;1295;73304;-82
2023/05/15 00:22:13;;;;;;;;;;;;;;;18.81;40.46;100969.02;103081;1292;76140;-81
2023/05/15 00:24:54;;;;;;;;;;;;;;;18.81;40.58;100957.09;103057;1295;63554;-82
2023/05/15 00:27:22;;;;;;;;;;;;;;;18.81;40.56;100953.34;103027;1291;62157;-83
2023/05/15 00:29:50;;;;;;;;;;;;;;;18.81;40.68;100954.27;103101;1291;73786;-82
2023/05/15 00:32:16;;;;;;;;;;;;;;;18.81;40.56;100958.00;103427;1291;76079;-81
2023/05/15 00:34:51;;;;;;;;;;;;;;;18.81;40.62;100957.64;103491;1291;62128;-82
2023/05/15 00:37:16;;;;;;;;;;;;;;;18.81;40.60;100956.39;103498;1291;62338;-79
2023/05/15 00:39:42;;;;;;;;;;;;;;;18.81;40.63;100953.70;103362;1292;62361;-79
2023/05/15 00:42:07;;;;;;;;;;;;;;;18.82;40.59;100950.28;103560;1291;62113;-81
2023/05/15 00:44:33;;;;;;;;;;;;;;;18.82;40.56;100946.71;103967;1285;62192;-80
2023/05/15 00:46:59;;;;;;;;;;;;;;;18.81;40.52;100937.30;103922;1287;62175;-80
2023/05/15 00:49:26;;;;;;;;;;;;;;;18.82;40.69;100925.84;103928;1285;63799;-80
2023/05/15 00:51:53;;;;;;;;;;;;;;;18.82;40.59;100925.28;103999;1285;72903;-80
2023/05/15 00:54:18;;;;;;;;;;;;;;;18.82;40.71;100921.38;103947;1285;62191;-80
2023/05/15 00:56:44;;;;;;;;;;;;;;;18.82;40.73;100923.69;103971;1291;62178;-80
2023/05/15 00:59:10;;;;;;;;;;;;;;;18.82;40.72;100922.63;104076;1284;62219;-80
2023/05/15 01:01:35;;;;;;;;;;;;;;;18.82;40.66;100916.71;103900;1285;62214;-82
2023/05/15 01:04:03;;;;;;;;;;;;;;;18.83;40.62;100913.48;103536;1285;62185;-82
2023/05/15 01:06:31;;;;;;;;;;;;;;;18.82;40.66;100902.45;103504;1285;75991;-83
2023/05/15 01:09:01;;;;;;;;;;;;;;;18.82;40.70;100889.61;103440;1285;62141;-82
2023/05/15 01:11:35;;;;;;;;;;;;;;;18.83;40.58;100890.14;103793;1285;62179;-83
2023/05/15 01:14:02;;;;;;;;;;;;;;;18.82;40.66;100893.55;103516;1286;72682;-83
2023/05/15 01:16:31;;;;;;;;;;;;;;;18.82;40.59;100891.22;103523;1290;75336;-82
2023/05/15 01:19:16;;;;;;;;;;;;;;;18.82;40.56;100884.84;103650;1288;62233;-84
2023/05/15 01:22:00;;;;;;;;;;;;;;;18.82;40.51;100883.25;103688;1285;62102;-82
2023/05/15 01:25:01;;;;;;;;;;;;;;;18.82;40.56;100880.39;103650;1286;72577;-82
2023/05/15 01:27:33;;;;;;;;;;;;;;;18.81;40.52;100872.77;102844;1296;75342;-83
2023/05/15 01:30:00;;;;;;;;;;;;;;;18.80;40.54;100865.14;102921;1297;62286;-82
2023/05/15 01:33:01;;;;;;;;;;;;;;;;;;;;;
2023/05/15 01:35:35;;;;;;;;;;;;;;;18.80;40.46;100886.90;103041;1293;72608;-82
2023/05/15 01:38:09;;;;;;;;;;;;;;;18.80;40.68;100882.08;102928;1294;75689;-83
2023/05/15 01:40:43;;;;;;;;;;;;;;;18.80;40.68;100879.95;102974;1294;62151;-82
2023/05/15 01:43:17;;;;;;;;;;;;;;;18.80;40.46;100879.25;102899;1295;62425;-82
2023/05/15 01:45:42;;;;;;;;;;;;;;;18.80;40.61;100881.41;103001;1294;73040;-82
2023/05/15 01:48:10;;;;;;;;;;;;;;;18.80;40.52;100884.98;103029;1296;62288;-82
2023/05/15 01:50:44;;;;;;;;;;;;;;;18.79;40.56;100890.32;102894;1292;63581;-83
2023/05/15 01:53:10;;;;;;;;;;;;;;;18.79;40.53;100887.82;102865;1293;62382;-82
2023/05/15 01:55:47;;;;;;;;;;;;;;;18.79;40.50;100886.05;102929;1294;62378;-82
2023/05/15 01:58:21;;;;;;;;;;;;;;;18.79;40.55;100888.93;102898;1294;76467;-82
2023/05/15 02:01:02;;;;;;;;;;;;;;;18.79;40.58;100895.52;102917;1292;62151;-82
2023/05/15 02:03:32;;;;;;;;;;;;;;;18.79;40.46;100899.99;103645;1285;62179;-82
2023/05/15 02:06:03;;;;;;;;;;;;;;;18.79;40.50;100898.21;103390;1288;73322;-82
2023/05/15 02:08:40;;;;;;;;;;;;;;;18.79;40.50;100891.43;103027;1290;76032;-83
2023/05/15 02:11:09;;;;;;;;;;;;;;;18.79;40.53;100884.11;103022;1291;64007;-82
2023/05/15 02:13:43;;;;;;;;;;;;;;;18.78;40.64;100884.52;103131;1290;62246;-82
2023/05/15 02:16:20;;;;;;;;;;;;;;;18.78;40.58;100888.44;103080;1290;73487;-82
2023/05/15 02:19:08;;;;;;;;;;;;;;;18.78;40.69;100893.61;103019;1296;76130;-83
2023/05/15 02:21:45;;;;;;;;;;;;;;;18.78;40.58;100889.70;103039;1291;62099;-82
2023/05/15 02:24:10;;;;;;;;;;;;;;;18.78;40.56;100890.60;103063;1290;62262;-83
2023/05/15 02:27:00;;;;;;;;;;;;;;;18.78;40.64;100896.30;103000;1290;73408;-82
2023/05/15 02:29:30;;;;;;;;;;;;;;;18.77;40.57;100901.49;103095;1291;76482;-81
2023/05/15 02:32:19;;;;;;;;;;;;;;;18.78;40.51;100909.88;102987;1292;62184;-83
2023/05/15 02:35:04;;;;;;;;;;;;;;;18.77;40.49;100911.48;102979;1291;62296;-83
2023/05/15 02:37:34;;;;;;;;;;;;;;;18.78;40.59;100914.33;103118;1291;73767;-82
2023/05/15 02:40:00;;;;;;;;;;;;;;;18.78;40.69;100913.77;103336;1285;76269;-82
2023/05/15 02:42:37;;;;;;;;;;;;;;;18.77;40.56;100914.16;103542;1285;62198;-82
2023/05/15 02:45:03;;;;;;;;;;;;;;;18.77;40.69;100910.24;103642;1284;62194;-82
2023/05/15 02:47:35;;;;;;;;;;;;;;;18.77;40.52;100907.56;103528;1291;72500;-83
2023/05/15 02:50:11;;;;;;;;;;;;;;;18.76;40.68;100909.74;103559;1285;76356;-82
2023/05/15 02:52:45;;;;;;;;;;;;;;;18.76;40.68;100915.96;103528;1285;62188;-82
2023/05/15 02:55:14;;;;;;;;;;;;;;;18.76;40.63;100917.95;103527;1286;62112;-83
2023/05/15 02:57:42;;;;;;;;;;;;;;;18.76;40.61;100916.36;103736;1285;72302;-82
2023/05/15 03:00:17;;;;;;;;;;;;;;;18.76;40.67;100907.06;103527;1286;74587;-82
2023/05/15 03:02:42;;;;;;;;;;;;;;;18.76;40.65;100903.14;103591;1286;62092;-83
2023/05/15 03:05:15;;;;;;;;;;;;;;;18.76;40.58;100897.82;103662;1285;62089;-82
2023/05/15 03:07:41;;;;;;;;;;;;;;;18.76;40.66;100884.45;103630;1285;62405;-82
2023/05/15 03:10:07;;;;;;;;;;;;;;;18.76;40.74;100877.16;103512;1285;62185;-82
2023/05/15 03:12:33;;;;;;;;;;;;;;;18.76;40.58;100882.70;103616;1285;62115;-83
2023/05/15 03:15:01;;;;;;;;;;;;;;;18.75;40.77;100891.27;103589;1285;62260;-83
2023/05/15 03:17:27;;;;;;;;;;;;;;;18.75;40.67;100898.75;103609;1289;62237;-82
2023/05/15 03:20:03;;;;;;;;;;;;;;;18.75;40.64;100895.91;103585;1286;62275;-83
2023/05/15 03:22:29;;;;;;;;;;;;;;;18.75;40.69;100886.11;103509;1284;62117;-82
2023/05/15 03:24:59;;;;;;;;;;;;;;;18.75;40.55;100886.29;103607;1285;62648;-82
2023/05/15 03:27:27;;;;;;;;;;;;;;;18.75;40.62;100897.73;103587;1285;72486;-82
2023/05/15 03:29:55;;;;;;;;;;;;;;;18.75;40.68;100906.09;103703;1286;62252;-82
2023/05/15 03:32:21;;;;;;;;;;;;;;;18.75;40.76;100912.14;103566;1285;62160;-82
2023/05/15 03:34:56;;;;;;;;;;;;;;;18.75;40.71;100917.86;103464;1284;62283;-82
2023/05/15 03:37:24;;;;;;;;;;;;;;;18.75;40.61;100906.44;103660;1285;73601;-82
2023/05/15 03:39:50;;;;;;;;;;;;;;;18.75;40.68;100892.55;103594;1285;76038;-82
2023/05/15 03:42:24;;;;;;;;;;;;;;;18.74;40.61;100884.73;103582;1291;62254;-82
2023/05/15 03:45:01;;;;;;;;;;;;;;;18.75;40.66;100876.33;103546;1285;62063;-83
2023/05/15 03:47:33;;;;;;;;;;;;;;;18.74;40.72;100867.84;103429;1285;72796;-83
2023/05/15 03:50:04;;;;;;;;;;;;;;;18.73;40.64;100865.39;103710;1288;75239;-84
2023/05/15 03:52:32;;;;;;;;;;;;;;;18.73;40.82;100870.39;103603;1286;62169;-82
2023/05/15 03:54:58;;;;;;;;;;;;;;;18.73;40.72;100876.64;103560;1285;62264;-83
2023/05/15 03:57:29;;;;;;;;;;;;;;;18.73;40.80;100881.27;103687;1288;62134;-83
2023/05/15 03:59:58;;;;;;;;;;;;;;;18.72;40.72;100877.05;103569;1286;76195;-83
2023/05/15 04:02:32;;;;;;;;;;;;;;;18.72;40.72;100876.16;103550;1285;62290;-82
2023/05/15 04:05:02;;;;;;;;;;;;;;;18.72;40.77;100874.92;103612;1286;62085;-83
2023/05/15 04:07:30;;;;;;;;;;;;;;;18.71;40.73;100866.55;103727;1286;71921;-82
2023/05/15 04:10:03;;;;;;;;;;;;;;;18.71;40.84;100863.52;103691;1286;75285;-82
2023/05/15 04:12:33;;;;;;;;;;;;;;;18.71;40.78;100857.45;103432;1288;62256;-83
2023/05/15 04:15:04;;;;;;;;;;;;;;;18.71;40.76;100854.45;103622;1288;62509;-82
2023/05/15 04:17:30;;;;;;;;;;;;;;;18.71;40.69;100846.59;103612;1285;72348;-83
2023/05/15 04:19:56;;;;;;;;;;;;;;;18.70;40.65;100849.67;103486;1285;62217;-83
2023/05/15 04:22:25;;;;;;;;;;;;;;;18.66;40.63;100852.07;103509;1285;62686;-83
2023/05/15 04:24:50;;;;;;;;;;;;;;;18.51;40.48;100854.39;103546;1285;62266;-83
2023/05/15 04:27:27;;;;;;;;;;;;;;;18.18;40.57;100862.52;103532;1291;73488;-82
2023/05/15 04:30:02;;;;;;;;;;;;;;;18.08;40.67;100872.57;103811;1288;75163;-83
2023/05/15 04:32:32;;;;;;;;;;;;;;;18.02;40.83;100882.67;103959;1285;62101;-83
2023/05/15 04:35:01;;;;;;;;;;;;;;;18.01;40.89;100884.71;104171;1284;62142;-83
2023/05/15 04:37:33;;;;;;;;;;;;;;;18.03;40.95;100889.22;103768;1285;73541;-83
2023/05/15 04:40:07;;;;;;;;;;;;;;;17.98;40.77;100885.05;104093;1284;76288;-83
2023/05/15 04:42:33;;;;;;;;;;;;;;;17.79;40.84;100900.50;104283;1285;62067;-82
2023/05/15 04:44:59;;;;;;;;;;;;;;;17.67;40.85;100907.76;103973;1287;62096;-82
2023/05/15 04:47:29;;;;;;;;;;;;;;;17.54;41.03;100909.54;104310;1284;73287;-81
2023/05/15 04:49:55;;;;;;;;;;;;;;;17.49;41.10;100908.95;104413;1285;62239;-83
2023/05/15 04:52:20;;;;;;;;;;;;;;;17.46;41.27;100903.59;104735;1285;62194;-82
2023/05/15 04:54:48;;;;;;;;;;;;;;;17.51;41.30;100909.37;105022;1291;62010;-82
2023/05/15 04:57:13;;;;;;;;;;;;;;;17.56;41.33;100909.42;105313;1285;61064;-82
2023/05/15 04:59:39;;;;;;;;;;;;;;;17.61;41.33;100909.00;105728;1284;60227;-82
2023/05/15 05:02:05;;;;;;;;;;;;;;;17.59;41.33;100902.48;105792;1284;60700;-82
2023/05/15 05:04:31;;;;;;;;;;;;;;;17.58;41.45;100905.35;105246;1285;60514;-83
2023/05/15 05:06:56;;;;;;;;;;;;;;;17.63;41.52;100906.00;105505;1284;63456;-82
2023/05/15 05:09:22;;;;;;;;;;;;;;;17.64;41.67;100902.80;105753;1288;71327;-81
2023/05/15 05:11:47;;;;;;;;;;;;;;;17.64;41.54;100902.75;105465;1285;62220;-81
2023/05/15 05:14:13;;;;;;;;;;;;;;;17.71;41.76;100904.53;105608;1285;61764;-81
2023/05/15 05:16:39;;;;;;;;;;;;;;;17.79;41.75;100898.40;105525;1285;60570;-82
2023/05/15 05:19:04;;;;;;;;;;;;;;;17.86;41.71;100889.60;105331;1288;62052;-82
2023/05/15 05:21:30;;;;;;;;;;;;;;;17.93;41.65;100884.08;105075;1288;62145;-82
2023/05/15 05:23:55;;;;;;;;;;;;;;;17.99;41.61;100882.55;105097;1285;62187;-82
2023/05/15 05:26:21;;;;;;;;;;;;;;;18.04;41.66;100886.33;105298;1284;61406;-82
2023/05/15 05:28:46;;;;;;;;;;;;;;;18.09;41.59;100886.38;105469;1285;62067;-82
2023/05/15 05:31:12;;;;;;;;;;;;;;;18.14;41.55;100888.27;105202;1285;62075;-82
2023/05/15 05:33:37;;;;;;;;;;;;;;;18.15;41.48;100895.84;105360;1287;60951;-82
2023/05/15 05:36:04;;;;;;;;;;;;;;;18.19;41.67;100891.48;105207;1284;62101;-81
2023/05/15 05:38:30;;;;;;;;;;;;;;;18.25;41.57;100890.66;105528;1288;61958;-82
2023/05/15 05:40:55;;;;;;;;;;;;;;;18.30;41.53;100890.73;105338;1287;62107;-81
2023/05/15 05:43:21;;;;;;;;;;;;;;;18.34;41.47;100891.41;105447;1285;62086;-82
2023/05/15 05:45:46;;;;;;;;;;;;;;;18.38;41.64;100896.51;105297;1285;62162;-83
2023/05/15 05:48:15;;;;;;;;;;;;;;;18.42;41.60;100896.77;105154;1287;62053;-82
2023/05/15 05:50:41;;;;;;;;;;;;;;;18.44;41.59;100897.04;105317;1285;62168;-82
2023/05/15 05:53:06;;;;;;;;;;;;;;;18.40;41.52;100899.95;105500;1285;61635;-82
2023/05/15 05:55:32;;;;;;;;;;;;;;;18.33;41.61;100903.74;105448;1285;62137;-82
2023/05/15 05:57:57;;;;;;;;;;;;;;;18.26;41.59;100908.57;105263;1290;60872;-82
2023/05/15 06:00:23;;;;;;;;;;;;;;;18.24;41.85;100913.34;105648;1284;60426;-83
2023/05/15 06:02:58;;;;;;;;;;;;;;;18.29;42.06;100915.90;105251;1285;62177;-81
2023/05/15 06:05:24;;;;;;;;;;;;;;;18.28;41.99;100919.67;105649;1285;61601;-82
2023/05/15 06:07:50;;;;;;;;;;;;;;;18.21;42.01;100915.29;105438;1285;61655;-81
2023/05/15 06:10:15;;;;;;;;;;;;;;;18.15;41.97;100914.89;105466;1286;62835;-82
2023/05/15 06:12:41;;;;;;;;;;;;;;;18.12;42.14;100916.89;105306;1285;60756;-83
2023/05/15 06:15:06;;;;;;;;;;;;;;;18.15;42.20;100915.62;105288;1286;60498;-82
2023/05/15 06:17:32;;;;;;;;;;;;;;;18.21;42.14;100916.00;105219;1286;62073;-81
2023/05/15 06:19:57;;;;;;;;;;;;;;;18.28;42.27;100913.65;105151;1291;72520;-81
2023/05/15 06:22:23;;;;;;;;;;;;;;;18.35;42.26;100908.08;104995;1285;62083;-82
2023/05/15 06:24:49;;;;;;;;;;;;;;;18.40;42.20;100901.02;105536;1285;62197;-82
2023/05/15 06:27:14;;;;;;;;;;;;;;;18.44;42.05;100905.75;105513;1285;60545;-82
2023/05/15 06:29:40;;;;;;;;;;;;;;;18.43;42.26;100904.55;105342;1291;62196;-81
2023/05/15 06:32:05;;;;;;;;;;;;;;;18.44;42.07;100905.58;105363;1285;73457;-81
2023/05/15 06:34:31;;;;;;;;;;;;;;;18.45;42.07;100902.53;105307;1286;62099;-82
2023/05/15 06:36:57;;;;;;;;;;;;;;;18.48;42.23;100897.20;105270;1286;62157;-82
2023/05/15 06:39:22;;;;;;;;;;;;;;;18.49;42.19;100889.41;105199;1286;62060;-82
2023/05/15 06:41:48;;;;;;;;;;;;;;;18.52;42.13;100884.66;104891;1287;62096;-81
2023/05/15 06:44:13;;;;;;;;;;;;;;;18.54;42.11;100877.56;105058;1287;62137;-82
2023/05/15 06:46:39;;;;;;;;;;;;;;;18.53;42.08;100865.34;104979;1290;62124;-82
2023/05/15 06:49:05;;;;;;;;;;;;;;;18.54;42.16;100864.56;105028;1290;61896;-82
2023/05/15 06:51:30;;;;;;;;;;;;;;;18.52;42.12;100857.90;105184;1287;61260;-83
2023/05/15 06:53:56;;;;;;;;;;;;;;;18.50;42.20;100851.59;105219;1288;61387;-85
2023/05/15 06:56:21;;;;;;;;;;;;;;;18.49;42.41;100853.43;105206;1286;60002;-84
2023/05/15 06:58:47;;;;;;;;;;;;;;;18.46;42.36;100853.07;105118;1290;74879;-82
2023/05/15 07:01:12;;;;;;;;;;;;;;;18.47;42.40;100856.27;105113;1288;62196;-82
2023/05/15 07:03:38;;;;;;;;;;;;;;;18.49;42.53;100855.24;105232;1288;62289;-82
2023/05/15 07:06:04;;;;;;;;;;;;;;;18.44;42.52;100853.93;104876;1290;661243;-83
2023/05/15 07:08:30;;;;;;;;;;;;;;;18.39;42.61;100848.83;105402;1291;61603;-86
2023/05/15 07:10:55;;;;;;;;;;;;;;;18.40;42.69;100842.21;105600;1288;62122;-83
2023/05/15 07:13:21;;;;;;;;;;;;;;;18.43;42.67;100847.55;105491;1288;60793;-82
2023/05/15 07:15:47;;;;;;;;;;;;;;;18.45;42.82;100843.52;105290;1288;62099;-82
2023/05/15 07:18:13;;;;;;;;;;;;;;;18.46;42.80;100847.55;105357;1288;62111;-81
2023/05/15 07:20:39;;;;;;;;;;;;;;;18.47;42.81;100853.92;105324;1288;62092;-82
2023/05/15 07:23:04;;;;;;;;;;;;;;;18.45;42.95;100855.45;105260;1287;60451;-82
2023/05/15 07:25:33;;;;;;;;;;;;;;;18.43;43.01;100854.83;105254;1288;60661;-82
2023/05/15 07:27:59;;;;;;;;;;;;;;;18.45;42.98;100856.18;105259;1286;62082;-82
2023/05/15 07:30:24;;;;;;;;;;;;;;;18.46;42.99;100859.34;105081;1286;62188;-82
2023/05/15 07:32:50;;;;;;;;;;;;;;;18.47;42.94;100861.06;104959;1287;62146;-83
2023/05/15 07:35:15;;;;;;;;;;;;;;;18.48;42.99;100859.41;104802;1288;62163;-82
2023/05/15 07:37:41;;;;;;;;;;;;;;;18.48;43.09;100851.75;105203;1284;61975;-80
2023/05/15 07:40:07;;;;;;;;;;;;;;;18.45;43.17;100849.75;105120;1285;60316;-81
2023/05/15 07:42:33;;;;;;;;;;;;;;;18.43;43.01;100850.94;104954;1285;62080;-81
2023/05/15 07:44:58;;;;;;;;;;;;;;;18.42;43.11;100845.85;105226;1285;60544;-81
2023/05/15 07:47:24;;;;;;;;;;;;;;;18.41;43.22;100849.45;105037;1284;62192;-82
2023/05/15 07:49:49;;;;;;;;;;;;;;;18.39;43.22;100847.95;105172;1285;62200;-82
2023/05/15 07:52:15;;;;;;;;;;;;;;;18.42;43.28;100849.05;105056;1288;73609;-81
2023/05/15 07:54:41;;;;;;;;;;;;;;;18.47;43.18;100852.69;105257;1291;62250;-81
2023/05/15 07:57:07;;;;;;;;;;;;;;;18.51;43.08;100854.20;105047;1291;62101;-81
2023/05/15 07:59:34;;;;;;;;;;;;;;;18.51;43.19;100855.48;104989;1285;61994;-82
2023/05/15 08:01:59;;;;;;;;;;;;;;;18.52;43.27;100856.80;105310;1286;62206;-84
2023/05/15 08:04:24;;;;;;;;;;;;;;;18.53;43.31;100859.09;105490;1285;62078;-83
2023/05/15 08:06:52;;;;;;;;;;;;;;;18.51;43.20;100858.67;105631;1284;60631;-84
2023/05/15 08:09:18;;;;;;;;;;;;;;;18.49;43.51;100861.98;105510;1285;61447;-82
2023/05/15 08:11:43;;;;;;;;;;;;;;;18.52;43.47;100858.96;105434;1291;60413;-82
2023/05/15 08:14:09;;;;;;;;;;;;;;;18.57;43.65;100857.41;105263;1288;62109;-82
2023/05/15 08:16:37;;;;;;;;;;;;;;;18.61;43.63;100858.98;105349;1285;62189;-83
2023/05/15 08:19:04;;;;;;;;;;;;;;;18.64;43.59;100859.16;105414;1285;60372;-83
2023/05/15 08:21:30;;;;;;;;;;;;;;;18.66;43.62;100858.52;105480;1291;60736;-82
2023/05/15 08:23:55;;;;;;;;;;;;;;;18.69;43.71;100851.38;105464;1286;62139;-82
2023/05/15 08:26:22;;;;;;;;;;;;;;;18.70;43.59;100840.58;105540;1291;62085;-81
2023/05/15 08:28:48;;;;;;;;;;;;;;;18.71;43.74;100833.58;105522;1290;61843;-82
2023/05/15 08:31:13;;;;;;;;;;;;;;;18.72;43.64;100834.79;105687;1285;62070;-82
2023/05/15 08:33:39;;;;;;;;;;;;;;;18.71;43.60;100835.53;105832;1285;61275;-82
2023/05/15 08:36:04;;;;;;;;;;;;;;;18.75;43.75;100833.16;105616;1285;60763;-82
2023/05/15 08:38:30;;;;;;;;;;;;;;;18.78;43.67;100834.58;105575;1286;62042;-83
2023/05/15 08:40:56;;;;;;;;;;;;;;;18.81;43.58;100841.03;105532;1285;62136;-82
2023/05/15 08:43:22;;;;;;;;;;;;;;;18.81;43.64;100838.67;105355;1285;62057;-82
2023/05/15 08:45:48;;;;;;;;;;;;;;;18.82;43.85;100841.31;105616;1285;61089;-82
2023/05/15 08:48:15;;;;;;;;;;;;;;;18.80;43.83;100837.66;105435;1285;60542;-82
2023/05/15 08:50:40;;;;;;;;;;;;;;;18.80;43.83;100833.97;105624;1287;76218;-82
2023/05/15 08:53:06;;;;;;;;;;;;;;;18.81;43.73;100831.19;105375;1285;62217;-83
2023/05/15 08:55:33;;;;;;;;;;;;;;;18.83;43.87;100827.20;105531;1284;61483;-82
2023/05/15 08:57:58;;;;;;;;;;;;;;;18.84;43.83;100819.41;105610;1291;61698;-83
2023/05/15 09:00:25;;;;;;;;;;;;;;;18.84;43.93;100811.38;105476;1285;62114;-82
2023/05/15 09:02:52;;;;;;;;;;;;;;;18.85;43.98;100801.73;105654;1284;60603;-83
2023/05/15 09:05:17;;;;;;;;;;;;;;;18.85;44.08;100792.08;105610;1285;62105;-83
2023/05/15 09:07:44;;;;;;;;;;;;;;;18.85;44.07;100791.00;105527;1291;60636;-85
2023/05/15 09:10:10;;;;;;;;;;;;;;;18.88;44.18;100796.92;105316;1285;60553;-83
2023/05/15 09:12:37;;;;;;;;;;;;;;;18.90;44.08;100795.91;105237;1288;62042;-83
2023/05/15 09:15:07;;;;;;;;;;;;;;;18.91;44.29;100789.80;105449;1286;60643;-82
2023/05/15 09:17:34;;;;;;;;;;;;;;;18.91;44.39;100787.63;105267;1288;73538;-82
2023/05/15 09:20:00;;;;;;;;;;;;;;;18.93;44.26;100786.63;105347;1285;75135;-81
2023/05/15 09:22:26;;;;;;;;;;;;;;;18.93;44.17;100782.16;105176;1285;61824;-82
2023/05/15 09:24:54;;;;;;;;;;;;;;;18.95;44.41;100790.46;105284;1284;60455;-81
2023/05/15 09:27:19;;;;;;;;;;;;;;;18.97;44.54;100793.37;105147;1285;60126;-82
2023/05/15 09:29:45;;;;;;;;;;;;;;;18.98;44.44;100793.48;105272;1285;60700;-80
2023/05/15 09:32:11;;;;;;;;;;;;;;;18.99;44.40;100792.51;105346;1285;61488;-82
2023/05/15 09:34:39;;;;;;;;;;;;;;;19.00;44.44;100791.39;105365;1285;62191;-81
2023/05/15 09:37:06;;;;;;;;;;;;;;;19.03;44.38;100796.58;105335;1287;60687;-81
2023/05/15 09:39:43;;;;;;;;;;;;;;;19.05;44.31;100794.09;105018;1291;61782;-82
2023/05/15 09:42:09;;;;;;;;;;;;;;;19.08;44.38;100798.70;105164;1285;62120;-81
2023/05/15 09:44:34;;;;;;;;;;;;;;;19.11;44.45;100799.78;105266;1284;62142;-81
2023/05/15 09:47:00;;;;;;;;;;;;;;;19.13;44.45;100796.98;105009;1291;60938;-81
2023/05/15 09:49:29;;;;;;;;;;;;;;;19.17;44.52;100792.61;104705;1285;62280;-80
2023/05/15 09:51:58;;;;;;;;;;;;;;;19.21;44.52;100787.77;105362;1291;62203;-81
2023/05/15 09:54:24;;;;;;;;;;;;;;;19.22;44.67;100789.45;104971;1290;62174;-79
2023/05/15 09:56:49;;;;;;;;;;;;;;;19.23;44.70;100784.59;105355;1285;61889;-80
2023/05/15 09:59:23;;;;;;;;;;;;;;;19.25;44.78;100788.21;105322;1286;62179;-80
2023/05/15 10:01:49;;;;;;;;;;;;;;;19.28;44.53;100785.36;105255;1288;62093;-82
2023/05/15 10:04:15;;;;;;;;;;;;;;;19.29;44.74;100778.30;105170;1285;62051;-83
2023/05/15 10:06:41;;;;;;;;;;;;;;;19.31;44.71;100777.86;105408;1286;62194;-82
2023/05/15 10:09:13;;;;;;;;;;;;;;;19.32;44.68;100776.71;105169;1285;76649;-83
2023/05/15 10:11:39;;;;;;;;;;;;;;;19.34;44.92;100772.29;105592;1288;62109;-83
2023/05/15 10:14:05;;;;;;;;;;;;;;;19.36;44.82;100766.11;105479;1285;62037;-82
2023/05/15 10:16:31;;;;;;;;;;;;;;;19.35;44.77;100758.13;105500;1285;62060;-83
2023/05/15 10:19:02;;;;;;;;;;;;;;;19.35;44.76;100762.77;105485;1288;62069;-83
2023/05/15 10:21:28;;;;;;;;;;;;;;;19.35;44.54;100766.29;105209;1284;62170;-82
2023/05/15 10:23:56;;;;;;;;;;;;;;;19.36;44.59;100762.00;105123;1285;62101;-82
2023/05/15 10:26:30;;;;;;;;;;;;;;;19.36;44.66;100756.06;105175;1291;60530;-83
2023/05/15 10:28:56;;;;;;;;;;;;;;;19.37;44.55;100753.87;105327;1286;75252;-83
2023/05/15 10:31:22;;;;;;;;;;;;;;;19.38;44.56;100744.52;105049;1289;62131;-83
2023/05/15 10:33:48;;;;;;;;;;;;;;;19.38;44.61;100743.09;104970;1290;62255;-82
2023/05/15 10:36:13;;;;;;;;;;;;;;;19.38;44.59;100737.02;104989;1286;62206;-83
2023/05/15 10:38:39;;;;;;;;;;;;;;;19.39;44.54;100739.85;104879;1286;62215;-83
2023/05/15 10:41:04;;;;;;;;;;;;;;;19.40;44.50;100737.27;105091;1285;62094;-83
2023/05/15 10:43:30;;;;;;;;;;;;;;;19.40;44.55;100733.84;104846;1289;62203;-83
2023/05/15 10:45:55;;;;;;;;;;;;;;;19.41;44.56;100734.89;104932;1285;62196;-82
2023/05/15 10:48:21;;;;;;;;;;;;;;;19.44;44.52;100725.75;105019;1287;60497;-83
2023/05/15 10:50:47;;;;;;;;;;;;;;;19.46;44.45;100719.78;105441;1285;62176;-82
2023/05/15 10:53:12;;;;;;;;;;;;;;;19.45;44.71;100718.41;105410;1285;62063;-82
2023/05/15 10:55:40;;;;;;;;;;;;;;;19.45;44.47;100722.70;105698;1285;62091;-83
2023/05/15 10:58:10;;;;;;;;;;;;;;;19.45;44.69;100719.83;105427;1285;61259;-81
2023/05/15 11:00:43;;;;;;;;;;;;;;;19.45;44.67;100710.54;105234;1291;72569;-81
2023/05/15 11:03:12;;;;;;;;;;;;;;;19.46;44.65;100711.05;105723;1288;74414;-82
2023/05/15 11:05:56;;;;;;;;;;;;;;;19.47;45.11;100714.16;105846;1286;61009;-82
2023/05/15 11:08:24;;;;;;;;;;;;;;;19.50;45.06;100712.54;105876;1287;60870;-82
2023/05/15 11:10:50;;;;;;;;;;;;;;;19.50;45.12;100718.39;105686;1285;73403;-81
2023/05/15 11:13:15;;;;;;;;;;;;;;;19.51;45.02;100730.11;105967;1286;60732;-81
2023/05/15 11:15:41;;;;;;;;;;;;;;;19.54;45.02;100734.41;105617;1288;60245;-81
2023/05/15 11:18:07;;;;;;;;;;;;;;;19.59;44.95;100728.55;105498;1285;60376;-82
2023/05/15 11:20:33;;;;;;;;;;;;;;;19.62;44.86;100730.30;105392;1291;60529;-82
2023/05/15 11:23:02;;;;;;;;;;;;;;;19.64;44.87;100732.00;105442;1288;62133;-82
2023/05/15 11:25:28;;;;;;;;;;;;;;;19.65;44.82;100732.29;104993;1291;63834;-82
2023/05/15 11:27:53;;;;;;;;;;;;;;;19.64;44.74;100729.31;104870;1292;70136;-82
2023/05/15 11:30:20;;;;;;;;;;;;;;;19.63;44.89;100736.89;104811;1287;62074;-82
2023/05/15 11:32:48;;;;;;;;;;;;;;;19.62;44.93;100740.30;104857;1291;62095;-82
2023/05/15 11:35:18;;;;;;;;;;;;;;;19.63;44.88;100739.00;105012;1286;62210;-82
2023/05/15 11:37:47;;;;;;;;;;;;;;;19.62;44.87;100733.70;104999;1285;61438;-82
2023/05/15 11:40:14;;;;;;;;;;;;;;;19.62;44.94;100736.23;104659;1291;72316;-82
2023/05/15 11:42:40;;;;;;;;;;;;;;;19.65;44.89;100733.48;105026;1288;62108;-81
2023/05/15 11:45:07;;;;;;;;;;;;;;;19.68;44.76;100733.49;106473;1286;59920;-82
2023/05/15 11:47:32;;;;;;;;;;;;;;;19.70;44.86;100731.02;105230;1291;62066;-82
2023/05/15 11:49:58;;;;;;;;;;;;;;;19.70;44.76;100736.04;105001;1290;62269;-82
2023/05/15 11:52:23;;;;;;;;;;;;;;;19.68;44.97;100734.19;104902;1292;62222;-81
2023/05/15 11:54:50;;;;;;;;;;;;;;;19.68;44.90;100729.55;104463;1288;62568;-82
2023/05/15 11:57:15;;;;;;;;;;;;;;;19.67;44.92;100732.16;104597;1286;60277;-82
2023/05/15 11:59:40;;;;;;;;;;;;;;;19.66;45.01;100734.13;104978;1286;61999;-81
2023/05/15 12:02:06;;;;;;;;;;;;;;;19.66;45.04;100731.30;105135;1287;62203;-81
2023/05/15 12:04:32;;;;;;;;;;;;;;;19.68;45.13;100730.45;105731;1289;60258;-81
2023/05/15 12:06:58;;;;;;;;;;;;;;;19.71;45.09;100727.77;105532;1285;61967;-81
2023/05/15 12:09:26;;;;;;;;;;;;;;;19.71;44.96;100725.41;104964;1286;62136;-81
2023/05/15 12:11:51;;;;;;;;;;;;;;;19.71;44.73;100722.21;105118;1291;60763;-81
2023/05/15 12:14:17;;;;;;;;;;;;;;;19.71;44.95;100720.39;105095;1284;62223;-81
2023/05/15 12:16:43;;;;;;;;;;;;;;;19.75;44.93;100716.44;105416;1287;60287;-81
2023/05/15 12:19:09;;;;;;;;;;;;;;;19.75;44.70;100718.02;104809;1289;62070;-81
2023/05/15 12:21:41;;;;;;;;;;;;;;;19.74;44.64;100717.52;105381;1286;61018;-81
2023/05/15 12:24:09;;;;;;;;;;;;;;;19.72;44.93;100715.70;104878;1286;72572;-81
2023/05/15 12:26:34;;;;;;;;;;;;;;;19.71;44.83;100711.52;104478;1286;75211;-81
2023/05/15 12:29:00;;;;;;;;;;;;;;;19.70;44.97;100712.82;104496;1286;62202;-80
2023/05/15 12:31:25;;;;;;;;;;;;;;;19.70;44.77;100711.23;104207;1292;62359;-83
2023/05/15 12:33:51;;;;;;;;;;;;;;;19.69;44.87;100713.98;104239;1290;62287;-82